This is the latest recevied weather packets stored in our database for station/object OE3PDB-3. If no packets are shown the sender has not sent any weather packets the latest 10 day(s).
| Time | Temp. | Humidity | Pressure | Rain* | Wind** | Luminosity | Snow |
|---|---|---|---|---|---|---|---|
| 1788082822 | 27.78° C | 44% | 1017.5 hPa | 0 mm | - | - | - |
| 1788082222 | 27.78° C | 44% | 1017.5 hPa | 0 mm | - | - | - |
| 1788081622 | 27.78° C | 45% | 1017.5 hPa | 0 mm | - | - | - |
| 1788081022 | 27.78° C | 45% | 1017.6 hPa | 0 mm | - | - | - |
| 1788080422 | 27.78° C | 45% | 1017.6 hPa | 0 mm | - | - | - |
| 1788079822 | 27.78° C | 45% | 1017.6 hPa | 0 mm | - | - | - |
| 1788079222 | 28.89° C | 45% | 1017.8 hPa | 0 mm | - | - | - |
| 1788078622 | 28.89° C | 44% | 1017.7 hPa | 0 mm | - | - | - |
| 1788078022 | 28.33° C | 45% | 1017.7 hPa | 0 mm | - | - | - |
| 1788077423 | 28.89° C | 45% | 1017.8 hPa | 0 mm | - | - | - |
| 1788076823 | 28.33° C | 46% | 1017.7 hPa | 0 mm | - | - | - |
| 1788076223 | 28.89° C | 45% | 1017.7 hPa | 0 mm | - | - | - |
| 1788075623 | 28.33° C | 49% | 1017.6 hPa | 0 mm | - | - | - |
| 1788075023 | 26.67° C | 53% | 1017.5 hPa | 0 mm | - | - | - |
| 1788074423 | 25° C | 55% | 1017.4 hPa | 0 mm | - | - | - |
| 1788073823 | 23.89° C | 59% | 1017.4 hPa | 0 mm | - | - | - |
| 1788073223 | 19.44° C | 70% | 1017.2 hPa | 0 mm | - | - | - |
| 1788072623 | 18.33° C | 69% | 1017.2 hPa | 0 mm | - | - | - |
| 1788072023 | 18.33° C | 69% | 1017.2 hPa | 0 mm | - | - | - |
| 1788071423 | 18.33° C | 69% | 1017.2 hPa | 0 mm | - | - | - |
| 1788070823 | 18.33° C | 69% | 1017.1 hPa | 0 mm | - | - | - |
| 1788070223 | 17.78° C | 69% | 1017 hPa | 0 mm | - | - | - |
| 1788069623 | 17.78° C | 70% | 1017 hPa | 0 mm | - | - | - |
| 1788069023 | 17.78° C | 72% | 1017 hPa | 0 mm | - | - | - |
| 1788068423 | 16.11° C | 73% | 1016.9 hPa | 0 mm | - | - | - |
* Rain latest hour (hover to see other rain measurements)
** Current wind speed in m/s (hover to see current wind gust speed)